Flight Track Log - Related Links

Times and Time Zones

All times are in EDT time to prevent confusion due to time zone crossing. See the JZA8145 flight status page for this flight to view local times or setup timezone preferences in your user account.

Time Position Orientation Groundspeed Altitude Reporting Facility
EDT Latitude Longitude Course Direction KTS MPH feet Rate Location/Type
Fri 03:03:33 PM 53.3333 -113.5667 169° South 160 184 3,700  Level Edmonton Center
Fri 03:04:33 PM 53.3333 -113.5000 90° East 180 207 4,800 1,350 Climbing Edmonton Center
Fri 03:05:33 PM 53.3333 -113.4167 90° East 160 184 6,400 1,550 Climbing Edmonton Center
Fri 03:06:00 PM 53.1191 -113.8410 166° South  Level FlightAware Approximate
Fri 03:06:33 PM 53.3000 -113.4167 180° South 150 173 7,900  Level Edmonton Center
Fri 03:07:00 PM 53.0512 -113.8115 169° South  Level FlightAware Approximate
Fri 03:07:33 PM 53.2500 -113.4667 211° Southwest 150 173 9,500  Level Edmonton Center
Fri 03:08:00 PM 52.9824 -113.7886 169° South  Level FlightAware Approximate
Fri 03:08:33 PM 53.2333 -113.5167 241° Southwest 160 184 10,800  Level Edmonton Center
Fri 03:09:33 PM 53.2000 -113.5667 222° Southwest 160 184 12,300 1,450 Climbing Edmonton Center
Fri 03:10:33 PM 53.1667 -113.6167 222° Southwest 160 184 13,700 1,350 Climbing Edmonton Center
Fri 03:11:33 PM 53.1000 -113.6333 189° South 170 196 15,000 1,200 Climbing Edmonton Center
Fri 03:12:33 PM 53.0667 -113.6500 197° South 190 219 16,100 1,000 Climbing Edmonton Center
Fri 03:13:33 PM 53.0167 -113.6333 169° South 180 207 17,000 1,050 Climbing Edmonton Center
Fri 03:14:33 PM 52.9500 -113.6167 171° South 220 253 18,200 1,000 Climbing Edmonton Center
Fri 03:15:33 PM 52.9000 -113.6167 180° South 190 219 19,000 400 Climbing Edmonton Center
Fri 03:16:33 PM 52.8333 -113.6333 189° South 240 276 19,000  Level Edmonton Center
Fri 03:17:33 PM 52.7667 -113.6167 171° South 260 299 19,000  Level Edmonton Center
Fri 03:18:33 PM 52.7000 -113.6333 189° South 260 299 19,000  Level Edmonton Center
Fri 03:19:33 PM 52.6167 -113.6167 173° South 270 311 19,000  Level Edmonton Center
Fri 03:20:33 PM 52.5500 -113.6167 180° South 270 311 19,000 -350 Level Edmonton Center
Fri 03:21:33 PM 52.4667 -113.6333 187° South 280 322 18,300 -900 Descending Edmonton Center
Fri 03:22:33 PM 52.3833 -113.6167 173° South 290 334 17,200 -1,000 Descending Edmonton Center
Fri 03:23:33 PM 52.2833 -113.6333 186° South 300 345 16,300 -900 Descending Edmonton Center
Fri 03:24:33 PM 52.2000 -113.6167 173° South 290 334 15,400 -700 Descending Edmonton Center
Fri 03:25:33 PM 52.1333 -113.6167 180° South 280 322 14,900 -650 Descending Edmonton Center
Fri 03:26:33 PM 52.0500 -113.6000 173° South 280 322 14,100 -900 Descending Edmonton Center
Fri 03:27:33 PM 51.9833 -113.6167 189° South 280 322 13,100 -1,000 Descending Edmonton Center
Fri 03:28:33 PM 51.9000 -113.6000 173° South 280 322 12,100 -1,050 Descending Edmonton Center
Fri 03:29:33 PM 51.8167 -113.6167 187° South 270 311 11,000 -550 Descending Edmonton Center
Fri 03:30:33 PM 51.7500 -113.6333 189° South 260 299 11,000 -300 Level Edmonton Center
Fri 03:31:33 PM 51.6833 -113.6667 197° South 260 299 10,400 -1,150 Descending Edmonton Center
Fri 03:32:33 PM 51.6000 -113.6833 187° South 270 311 8,700 -1,200 Descending Edmonton Center
Fri 03:33:33 PM 51.5333 -113.7000 189° South 240 276 8,000 -350 Descending Edmonton Center
Fri 03:34:33 PM 51.4667 -113.7000 180° South 250 288 8,000 50 Level Edmonton Center
Fri 03:35:33 PM 51.4000 -113.7167 189° South 250 288 8,100 -200 Climbing Edmonton Center
Fri 03:36:33 PM 51.3333 -113.7333 189° South 250 288 7,600 -750 Descending Edmonton Center
Fri 03:37:33 PM 51.2667 -113.7500 189° South 260 299 6,600 -800 Descending Edmonton Center
Fri 03:38:33 PM 51.2000 -113.7667 189° South 250 288 6,000 -300 Descending Edmonton Center
Fri 03:39:33 PM 51.1167 -113.7667 180° South 230 265 6,000 -450 Level Edmonton Center
Fri 03:40:33 PM 51.0500 -113.7500 171° South 220 253 5,100 -500 Descending Edmonton Center
Fri 03:41:33 PM 51.0167 -113.8333 238° Southwest 220 253 5,000 -50 Descending Edmonton Center
Fri 03:42:33 PM 51.0500 -113.9167 302° West 190 219 5,000 -250 Level Edmonton Center
Fri 03:43:33 PM 51.0500 -113.9667 270° West 150 173 4,500 -500 Descending Edmonton Center

Login

Don't have an account? Register now (free) for customized features, flight alerts, and more!